Terminal Aerodrome Forecast
Issued by NWS Sterling, VA

Home | Current Version | Previous Version | Text Only | Print | Product List | Glossary On
Versions: 1 2 3 4 5 6 7 8 9 10 11 12 13 14 15 16 17 18 19 20 21
000
FTUS41 KLWX 270534
TAFDCA
TAF
KDCA 270534Z 2706/2806 18006KT P6SM SCT120 BKN250
      TEMPO 2710/2714 BKN015
     FM271400 18009KT P6SM SCT020 BKN090
     FM271900 21012KT 6SM -SHRA VCTS BKN040CB
     FM272300 19007KT P6SM BKN200=

USA.gov is the U.S. government's official web portal to all federal, state and local government web resources and services.